Charter Quote
Worldwide +1-877-727-2538 Call
Select Language Lang
SAFETY RELIABILITY EXPERIENCE

Private Jet Charter Services - Laupheim Airport (ETHL)

Paramount Business Jets offers private jet charter flights and luxury airliner charters to and from Laupheim Airport.

AIRPORT INFORMATION
ICAOETHL
LOCATIONLaupheim, Germany
FACILITY TYPEAIRPORT
Runway Length (ft) Width (ft) Surface Type Elevation (ft)
27/09 5400 98 ASP 1764.85246
21/03 1968 164 GRS 1764.85246

At Paramount Business Jets you can hire chartered private jets to and from Laupheim Airport with as little as 4 hours of notice. All flights booked via Paramount Business Jets are operated by certified direct air carriers that meet and exceed the FAA part 135 and 121 protocol or a foreign equivalent safety authority. Furthermore, Paramount Business Jets subscribes to ARGUS for their third party safety checks of operators, aircraft, and crews prior each and every flight to and from Laupheim Airport and worldwide.

  • Quote a trip using Laupheim Airport or call us 24/7 - 365 days a year at +1-877-727-2538.
Questions? Call +1-877-727-2538

METAR Weather Data at Laupheim Airport, ETHL

STATIONETHL
OBSERVEDSun Aug 25, 16:20 UTC
NOWSun Aug 25, 16:48 UTC
AGE28 min ago
WINDNNE at 1 mph
VISIBILITY13 miles
METARETHL 251620Z AUTO 02001KT 8000 // ////// 27/10 Q1019 ///

Call us on +1-877-727-2538 (24 Hours) to Hire a Private Jet or Get a Quick Quote.

Find Airports Near any Location

Processing
...